createdAt,value
2023-11-12T00:03:02.664Z,4.70
2023-11-12T00:06:07.478Z,5.60
2023-11-12T00:09:10.648Z,5.60
2023-11-12T00:12:13.317Z,4.70
2023-11-12T00:15:16.001Z,4.75
2023-11-12T00:18:18.647Z,4.70
2023-11-12T00:21:22.593Z,5.20
2023-11-12T00:24:25.213Z,4.93
2023-11-12T00:27:28.217Z,5.05
2023-11-12T00:30:30.784Z,4.88
2023-11-12T00:33:33.573Z,5.68
2023-11-12T00:36:39.686Z,5.28
2023-11-12T00:39:42.950Z,4.97
2023-11-12T00:42:45.749Z,4.72
2023-11-12T00:45:48.411Z,5.00
2023-11-12T00:48:51.031Z,5.00
2023-11-12T00:51:55.022Z,5.60
2023-11-12T00:54:57.594Z,4.80
2023-11-12T00:58:00.327Z,4.72
2023-11-12T01:01:03.195Z,4.75
2023-11-12T01:04:06.602Z,5.10
2023-11-12T01:07:10.544Z,5.28
2023-11-12T01:10:13.291Z,5.22
2023-11-12T01:13:16.333Z,5.57
2023-11-12T01:16:19.057Z,7.95
2023-11-12T01:19:21.720Z,4.63
2023-11-12T01:22:25.708Z,3.83
2023-11-12T01:25:28.408Z,4.72
2023-11-12T01:28:32.931Z,4.35
2023-11-12T01:31:35.606Z,4.60
2023-11-12T01:34:38.201Z,4.05
2023-11-12T01:37:42.104Z,3.88
2023-11-12T01:40:44.680Z,3.60
2023-11-12T01:43:47.277Z,4.00
2023-11-12T01:46:50.100Z,3.90
2023-11-12T01:49:53.598Z,4.43
2023-11-12T01:52:57.591Z,3.80
2023-11-12T01:56:00.226Z,4.05
2023-11-12T01:59:02.945Z,4.40
2023-11-12T02:02:06.403Z,3.50
2023-11-12T02:05:09.601Z,4.20
2023-11-12T02:08:13.943Z,4.78
2023-11-12T02:11:16.688Z,5.97
2023-11-12T02:14:21.786Z,5.05
2023-11-12T02:17:26.279Z,5.18
2023-11-12T02:20:29.011Z,5.60
2023-11-12T02:23:33.030Z,5.78
2023-11-12T02:26:38.266Z,5.60
2023-11-12T02:29:48.581Z,6.32
2023-11-12T02:32:51.271Z,5.30
2023-11-12T02:35:53.919Z,5.45
2023-11-12T02:38:57.574Z,6.03
2023-11-12T02:42:01.662Z,6.05
2023-11-12T02:45:05.189Z,5.10
2023-11-12T02:48:08.426Z,6.03
2023-11-12T02:51:11.215Z,6.25
2023-11-12T02:54:13.941Z,5.38
2023-11-12T02:57:22.102Z,4.53
2023-11-12T03:00:28.611Z,4.50
2023-11-12T03:03:31.575Z,5.17
2023-11-12T03:06:34.295Z,6.60
2023-11-12T03:09:37.024Z,7.63
2023-11-12T03:12:41.170Z,8.30
2023-11-12T03:15:43.814Z,9.50
2023-11-12T03:18:49.975Z,10.13
2023-11-12T03:21:53.979Z,9.85
2023-11-12T03:24:56.584Z,10.55
2023-11-12T03:28:01.014Z,10.43
2023-11-12T03:31:03.594Z,10.63
2023-11-12T03:34:06.380Z,9.80
2023-11-12T03:37:09.003Z,10.93
2023-11-12T03:40:12.969Z,10.10
2023-11-12T03:43:16.892Z,11.13
2023-11-12T03:46:19.529Z,12.18
2023-11-12T03:49:22.339Z,11.88
2023-11-12T03:52:25.001Z,11.88
2023-11-12T03:55:27.612Z,11.73
2023-11-12T03:58:32.133Z,12.13
2023-11-12T04:01:34.764Z,12.40
2023-11-12T04:04:37.637Z,12.63
2023-11-12T04:07:40.341Z,12.23
2023-11-12T04:10:43.085Z,12.50
2023-11-12T04:13:47.332Z,13.02
2023-11-12T04:16:49.916Z,12.85
2023-11-12T04:19:53.005Z,13.55
2023-11-12T04:22:56.011Z,12.75
2023-11-12T04:25:58.875Z,13.00
2023-11-12T04:29:07.815Z,12.88
2023-11-12T04:32:10.392Z,12.02
2023-11-12T04:35:13.124Z,13.18
2023-11-12T04:38:15.960Z,14.75
2023-11-12T04:41:18.574Z,13.95
2023-11-12T04:44:22.513Z,14.32
2023-11-12T04:47:25.670Z,12.70
2023-11-12T04:50:29.774Z,13.25
2023-11-12T04:53:32.659Z,13.27
2023-11-12T04:56:35.226Z,13.13
2023-11-12T04:59:41.980Z,12.23
2023-11-12T05:02:46.121Z,12.18
2023-11-12T05:05:50.117Z,13.25
2023-11-12T05:08:52.733Z,12.18
2023-11-12T05:11:55.502Z,12.48
2023-11-12T05:14:59.487Z,12.98
2023-11-12T05:18:06.840Z,12.43
2023-11-12T05:24:12.127Z,13.25
2023-11-12T05:27:14.778Z,13.48
2023-11-12T05:30:18.768Z,15.32
2023-11-12T05:33:21.424Z,14.25
2023-11-12T05:36:24.075Z,15.32
2023-11-12T05:39:26.867Z,15.88
2023-11-12T05:42:29.541Z,16.20
2023-11-12T05:45:33.518Z,15.48
2023-11-12T05:48:36.138Z,15.20
2023-11-12T05:51:38.782Z,15.75
2023-11-12T05:54:41.447Z,16.17
2023-11-12T05:57:44.136Z,16.00
2023-11-12T06:00:48.234Z,17.23
2023-11-12T06:03:50.990Z,16.27
2023-11-12T06:06:53.668Z,15.85
2023-11-12T06:09:56.901Z,16.27
2023-11-12T06:12:59.600Z,16.38
2023-11-12T06:16:03.542Z,17.63
2023-11-12T06:19:06.565Z,16.88
2023-11-12T06:22:09.228Z,17.02
2023-11-12T06:25:12.939Z,17.23
2023-11-12T06:28:17.567Z,16.92
2023-11-12T06:31:22.350Z,17.42
2023-11-12T06:34:24.918Z,17.05
2023-11-12T06:37:27.765Z,16.52
2023-11-12T06:40:30.337Z,15.65
2023-11-12T06:43:32.903Z,15.70
2023-11-12T06:46:36.845Z,15.20
2023-11-12T06:49:39.439Z,15.10
2023-11-12T06:52:42.054Z,14.23
2023-11-12T06:55:44.742Z,14.02
2023-11-12T06:58:49.470Z,13.27
2023-11-12T07:01:53.500Z,12.93
2023-11-12T07:04:56.271Z,12.63
2023-11-12T07:07:59.026Z,13.90
2023-11-12T07:11:01.629Z,12.73
2023-11-12T07:14:04.584Z,13.07
2023-11-12T07:17:08.613Z,12.98
2023-11-12T07:20:12.515Z,13.45
2023-11-12T07:23:15.128Z,13.32
2023-11-12T07:26:17.762Z,13.23
2023-11-12T07:29:20.391Z,13.32
2023-11-12T07:32:24.388Z,14.32
2023-11-12T07:35:27.465Z,13.77
2023-11-12T07:38:30.036Z,13.07
2023-11-12T07:41:34.304Z,13.57
2023-11-12T07:44:37.570Z,13.57
2023-11-12T07:47:41.583Z,13.00
2023-11-12T07:50:44.211Z,12.02
2023-11-12T07:53:47.017Z,11.75
2023-11-12T07:56:49.606Z,11.20
2023-11-12T07:59:52.309Z,10.55
2023-11-12T08:02:56.374Z,11.48
2023-11-12T08:05:59.017Z,11.73
2023-11-12T08:09:01.885Z,11.98
2023-11-12T08:12:05.119Z,14.38
2023-11-12T08:15:08.999Z,13.77
2023-11-12T08:18:12.969Z,15.18
2023-11-12T08:21:15.651Z,13.43
2023-11-12T08:24:18.426Z,13.43
2023-11-12T08:27:21.067Z,14.18
2023-11-12T08:30:24.470Z,13.70
2023-11-12T08:33:28.525Z,14.30
2023-11-12T08:36:31.254Z,13.25
2023-11-12T08:39:33.891Z,15.30
2023-11-12T08:42:36.509Z,14.70
2023-11-12T08:45:39.160Z,15.93
2023-11-12T08:48:44.293Z,15.27
2023-11-12T08:51:47.014Z,15.98
2023-11-12T08:54:50.228Z,16.33
2023-11-12T08:57:52.925Z,14.63
2023-11-12T09:00:55.590Z,13.88
2023-11-12T09:03:59.684Z,12.73
2023-11-12T09:07:02.347Z,15.30
2023-11-12T09:10:05.734Z,14.55
2023-11-12T09:13:08.327Z,13.48
2023-11-12T09:16:12.027Z,14.07
2023-11-12T09:19:16.058Z,14.23
2023-11-12T09:22:18.666Z,13.23
2023-11-12T09:25:21.294Z,12.85
2023-11-12T09:28:23.925Z,13.02
2023-11-12T09:31:27.096Z,12.52
2023-11-12T09:34:31.713Z,13.13
2023-11-12T09:37:34.282Z,13.45
2023-11-12T09:40:37.012Z,11.82
2023-11-12T09:43:39.643Z,12.05
2023-11-12T09:46:42.314Z,12.50
2023-11-12T09:49:46.249Z,12.45
2023-11-12T09:52:49.076Z,11.70
2023-11-12T09:55:53.060Z,10.75
2023-11-12T09:58:55.924Z,12.07
2023-11-12T10:01:58.575Z,10.38
2023-11-12T10:05:05.705Z,10.52
2023-11-12T10:08:08.361Z,10.80
2023-11-12T10:11:18.398Z,11.85
2023-11-12T10:14:24.107Z,10.90
2023-11-12T10:17:26.743Z,10.02
2023-11-12T10:20:31.963Z,8.70
2023-11-12T10:23:34.572Z,9.10
2023-11-12T10:26:37.750Z,9.52
2023-11-12T10:29:41.125Z,8.48
2023-11-12T10:32:43.760Z,9.18
2023-11-12T10:35:48.250Z,9.68
2023-11-12T10:38:51.018Z,6.47
2023-11-12T10:41:53.651Z,8.48
2023-11-12T10:44:58.014Z,9.43
2023-11-12T10:48:00.905Z,8.40
2023-11-12T10:51:06.641Z,9.38
2023-11-12T10:54:09.430Z,10.05
2023-11-12T10:57:12.382Z,10.07
2023-11-12T11:00:16.967Z,12.40
2023-11-12T11:03:19.623Z,16.77
2023-11-12T11:06:23.800Z,18.98
2023-11-12T11:09:26.398Z,21.98
2023-11-12T11:12:29.221Z,21.70
2023-11-12T11:15:44.206Z,14.63
2023-11-12T11:18:53.144Z,17.90
2023-11-12T11:22:24.881Z,19.05
2023-11-12T11:25:27.684Z,18.48
2023-11-12T11:28:35.506Z,16.77
2023-11-12T11:31:38.817Z,21.77
2023-11-12T11:34:41.955Z,20.15
2023-11-12T11:38:11.257Z,22.40
2023-11-12T11:41:14.057Z,20.90
2023-11-12T11:44:45.593Z,22.20
2023-11-12T11:48:06.432Z,21.05
2023-11-12T11:51:48.649Z,21.65
2023-11-12T11:54:56.932Z,21.30
2023-11-12T11:58:01.602Z,18.70
2023-11-12T12:01:05.051Z,19.50
2023-11-12T12:04:07.883Z,19.27
2023-11-12T12:07:10.553Z,19.33
2023-11-12T12:10:27.616Z,21.90
2023-11-12T12:13:31.487Z,21.50
2023-11-12T12:16:34.614Z,24.48
2023-11-12T12:19:37.392Z,23.63
2023-11-12T12:22:40.034Z,24.90
2023-11-12T12:25:53.540Z,24.45
2023-11-12T12:28:56.179Z,28.80
2023-11-12T12:31:59.734Z,25.33
2023-11-12T12:35:02.405Z,25.70
2023-11-12T12:38:07.296Z,18.08
2023-11-12T12:41:11.209Z,27.10
2023-11-12T12:44:21.150Z,20.90
2023-11-12T12:47:31.744Z,24.75
2023-11-12T12:50:34.738Z,25.73
2023-11-12T12:53:38.000Z,20.20
2023-11-12T12:56:41.987Z,24.42
2023-11-12T12:59:44.674Z,25.80
2023-11-12T13:02:49.021Z,25.95
2023-11-12T13:05:52.002Z,29.17
2023-11-12T13:08:55.186Z,28.75
2023-11-12T13:11:59.211Z,29.75
2023-11-12T13:15:01.863Z,29.58
2023-11-12T13:18:04.768Z,29.42
2023-11-12T13:21:07.562Z,30.33
2023-11-12T13:24:11.522Z,31.33
2023-11-12T13:27:15.535Z,30.02
2023-11-12T13:30:18.436Z,22.63
2023-11-12T13:33:21.028Z,20.02
2023-11-12T13:36:25.799Z,27.85
2023-11-12T13:39:30.840Z,31.48
2023-11-12T13:42:36.754Z,28.63
2023-11-12T13:45:39.715Z,23.38
2023-11-12T13:48:42.821Z,26.98
2023-11-12T13:51:47.397Z,30.50
2023-11-12T13:54:50.895Z,32.70
2023-11-12T13:57:56.674Z,29.48
2023-11-12T14:00:59.377Z,27.45
2023-11-12T14:04:02.402Z,31.55
2023-11-12T14:07:06.952Z,22.25
2023-11-12T14:10:10.628Z,32.30
2023-11-12T14:13:15.686Z,19.40
2023-11-12T14:16:18.833Z,21.45
2023-11-12T14:19:21.491Z,22.35
2023-11-12T14:22:24.108Z,27.00
2023-11-12T14:25:26.891Z,22.38
2023-11-12T14:28:32.409Z,14.55
2023-11-12T14:31:35.446Z,15.85
2023-11-12T14:34:39.561Z,22.40
2023-11-12T14:37:42.536Z,28.17
2023-11-12T14:40:45.160Z,23.10
2023-11-12T14:43:49.366Z,26.88
2023-11-12T14:46:52.055Z,22.67
2023-11-12T14:49:54.677Z,22.48
2023-11-12T14:52:59.151Z,23.23
2023-11-12T14:56:02.087Z,24.55
2023-11-12T14:59:07.092Z,25.85
2023-11-12T15:02:13.853Z,27.98
2023-11-12T15:05:16.993Z,25.58
2023-11-12T15:08:19.566Z,26.10
2023-11-12T15:11:22.155Z,24.95
2023-11-12T15:14:26.129Z,19.98
2023-11-12T15:17:30.302Z,21.90
2023-11-12T15:20:36.108Z,23.45
2023-11-12T15:23:38.689Z,20.20
2023-11-12T15:26:42.511Z,21.85
2023-11-12T15:29:46.842Z,28.02
2023-11-12T15:32:50.108Z,24.90
2023-11-12T15:35:54.064Z,25.55
2023-11-12T15:38:57.290Z,18.25
2023-11-12T15:41:59.900Z,23.83
2023-11-12T15:45:07.011Z,26.60
2023-11-12T15:48:09.647Z,28.15
2023-11-12T15:51:14.868Z,26.30
2023-11-12T15:54:17.490Z,23.60
2023-11-12T15:57:20.096Z,28.60
2023-11-12T16:00:25.219Z,20.98
2023-11-12T16:03:30.697Z,22.70
2023-11-12T16:06:33.463Z,27.17
2023-11-12T16:09:36.149Z,25.30
2023-11-12T16:12:39.387Z,29.15
2023-11-12T16:15:43.503Z,29.90
2023-11-12T16:18:47.337Z,28.10
2023-11-12T16:21:50.053Z,24.95
2023-11-12T16:24:53.042Z,23.25
2023-11-12T16:27:56.525Z,23.33
2023-11-12T16:31:03.039Z,31.05
2023-11-12T16:34:06.206Z,32.25
2023-11-12T16:37:10.276Z,23.33
2023-11-12T16:40:15.853Z,15.60
2023-11-12T16:43:19.567Z,25.85
2023-11-12T16:46:23.552Z,24.67
2023-11-12T16:49:27.277Z,27.90
2023-11-12T16:52:29.951Z,22.13
2023-11-12T16:55:32.520Z,28.90
2023-11-12T16:58:35.164Z,26.45
2023-11-12T17:01:45.299Z,21.65
2023-11-12T17:04:48.605Z,24.98
2023-11-12T17:07:51.548Z,24.50
2023-11-12T17:10:54.218Z,28.30
2023-11-12T17:13:57.647Z,22.77
2023-11-12T17:17:01.620Z,21.80
2023-11-12T17:20:04.876Z,22.10
2023-11-12T17:23:08.678Z,32.33
2023-11-12T17:26:11.368Z,33.55
2023-11-12T17:29:14.023Z,25.65
2023-11-12T17:32:18.431Z,31.05
2023-11-12T17:35:21.021Z,26.38
2023-11-12T17:38:28.215Z,29.83
2023-11-12T17:41:30.848Z,32.20
2023-11-12T17:44:35.286Z,27.58
2023-11-12T17:47:39.479Z,29.98
2023-11-12T17:50:42.390Z,30.15
2023-11-12T17:53:44.973Z,30.75
2023-11-12T17:56:48.904Z,30.90
2023-11-12T17:59:52.014Z,28.05
2023-11-12T18:02:56.442Z,24.30
2023-11-12T18:05:59.190Z,33.20
2023-11-12T18:09:01.938Z,33.03
2023-11-12T18:12:04.910Z,34.92
2023-11-12T18:15:13.854Z,30.58
2023-11-12T18:18:22.238Z,36.05
2023-11-12T18:21:25.126Z,24.90
2023-11-12T18:24:27.699Z,27.52
2023-11-12T18:27:30.319Z,33.40
2023-11-12T18:30:32.958Z,31.50
2023-11-12T18:33:37.104Z,31.52
2023-11-12T18:36:40.774Z,28.67
2023-11-12T18:39:44.111Z,30.25
2023-11-12T18:42:46.819Z,33.85
2023-11-12T18:45:49.799Z,30.55
2023-11-12T18:48:55.489Z,31.80
2023-11-12T18:51:58.148Z,34.42
2023-11-12T18:55:00.791Z,37.70
2023-11-12T18:58:03.432Z,35.33
2023-11-12T19:01:06.284Z,36.42
2023-11-12T19:04:10.370Z,36.67
2023-11-12T19:07:15.854Z,31.98
2023-11-12T19:10:23.447Z,32.45
2023-11-12T19:13:26.175Z,33.85
2023-11-12T19:16:29.225Z,30.80
2023-11-12T19:19:34.534Z,30.15
2023-11-12T19:22:37.111Z,29.55
2023-11-12T19:25:40.671Z,31.63
2023-11-12T19:28:43.306Z,31.88
2023-11-12T19:31:46.050Z,30.88
2023-11-12T19:34:50.742Z,34.17
2023-11-12T19:37:53.384Z,36.58
2023-11-12T19:40:56.007Z,37.38
2023-11-12T19:43:58.640Z,36.47
2023-11-12T19:47:01.621Z,38.47
2023-11-12T19:50:07.811Z,37.80
2023-11-12T19:53:14.141Z,37.13
2023-11-12T19:56:18.276Z,37.85
2023-11-12T19:59:20.883Z,36.75
2023-11-12T20:02:23.574Z,38.20
2023-11-12T20:05:27.661Z,35.60
2023-11-12T20:08:30.281Z,34.17
2023-11-12T20:11:32.957Z,32.10
2023-11-12T20:14:37.765Z,35.80
2023-11-12T20:17:40.597Z,36.28
2023-11-12T20:20:44.533Z,32.03
2023-11-12T20:23:53.711Z,35.60
2023-11-12T20:26:57.540Z,35.60
2023-11-12T20:30:00.259Z,37.33
2023-11-12T20:33:03.018Z,37.72
2023-11-12T20:36:11.349Z,39.05
2023-11-12T20:39:16.891Z,40.75
2023-11-12T20:42:20.601Z,37.05
2023-11-12T20:45:23.254Z,38.55
2023-11-12T20:48:26.325Z,37.20
2023-11-12T20:51:30.317Z,35.47
2023-11-12T20:54:33.546Z,39.05
2023-11-12T20:57:36.759Z,37.47
2023-11-12T21:00:40.176Z,38.22
2023-11-12T21:03:43.646Z,41.08
2023-11-12T21:06:48.463Z,36.05
2023-11-12T21:09:52.420Z,38.53
2023-11-12T21:12:55.099Z,37.13
2023-11-12T21:15:58.320Z,37.53
2023-11-12T21:19:03.284Z,43.25
2023-11-12T21:22:07.490Z,40.63
2023-11-12T21:25:10.986Z,38.25
2023-11-12T21:28:13.755Z,37.13
2023-11-12T21:31:16.562Z,41.88
2023-11-12T21:34:19.310Z,43.85
2023-11-12T21:37:23.266Z,47.38
2023-11-12T21:40:25.981Z,40.92
2023-11-12T21:43:28.569Z,42.55
2023-11-12T21:46:31.211Z,42.78
2023-11-12T21:49:33.850Z,62.00
2023-11-12T21:52:37.824Z,44.08
2023-11-12T21:55:40.417Z,70.70
2023-11-12T21:58:43.031Z,52.70
2023-11-12T22:01:45.642Z,47.83
2023-11-12T22:04:51.149Z,56.53
2023-11-12T22:07:55.111Z,38.65
2023-11-12T22:10:57.675Z,44.90
2023-11-12T22:14:00.242Z,37.35
2023-11-12T22:17:03.245Z,48.90
2023-11-12T22:20:07.155Z,58.47
2023-11-12T22:23:12.572Z,56.85
2023-11-12T22:26:15.246Z,62.22
2023-11-12T22:29:18.871Z,56.60
2023-11-12T22:32:22.223Z,37.63
2023-11-12T22:35:24.924Z,35.42
2023-11-12T22:38:28.909Z,40.85
2023-11-12T22:41:31.492Z,41.85
2023-11-12T22:44:34.120Z,39.15
2023-11-12T22:47:36.781Z,49.03
2023-11-12T22:50:41.900Z,50.95
2023-11-12T22:53:45.862Z,59.83
2023-11-12T22:56:49.406Z,40.10
2023-11-12T22:59:52.209Z,39.97
2023-11-12T23:02:55.088Z,41.33
2023-11-12T23:05:57.765Z,49.53
2023-11-12T23:09:07.441Z,31.77
2023-11-12T23:12:11.430Z,36.22
2023-11-12T23:15:14.285Z,47.10
2023-11-12T23:18:18.692Z,36.00
2023-11-12T23:21:21.374Z,41.20
2023-11-12T23:24:25.368Z,34.63
2023-11-12T23:27:28.036Z,41.90
2023-11-12T23:30:31.699Z,30.90
2023-11-12T23:33:34.290Z,36.50
2023-11-12T23:36:36.919Z,38.50
2023-11-12T23:39:43.651Z,34.25
2023-11-12T23:42:46.593Z,37.85
2023-11-12T23:45:49.262Z,36.13
2023-11-12T23:48:51.927Z,36.78
2023-11-12T23:51:54.627Z,35.88
2023-11-12T23:54:58.599Z,31.08
2023-11-12T23:58:01.725Z,33.45
